Time;durP1;ratioP1;P1;durP2;ratioP2;P2;SDS_P1;SDS_P2;PMS_P1;PMS_P2;Temp;Humidity;BMP_temperature;BMP_pressure;BME280_temperature;BME280_humidity;BME280_pressure;Samples;Min_cycle;Max_cycle;Signal;HPM_P1;HPM_P2
2024/03/05 00:02:31;;;;;;;2.20;1.10;;;;;;;17.26;53.53;101083.41;10451916;28;20785;-63
2024/03/05 00:07:31;;;;;;;3.13;1.13;;;;;;;17.25;53.52;101074.56;10451266;28;20291;-64
2024/03/05 00:12:33;;;;;;;2.43;1.00;;;;;;;17.24;53.25;101072.97;10450152;28;20076;-63
2024/03/05 00:17:33;;;;;;;1.83;1.00;;;;;;;17.25;54.53;101077.25;10450709;28;20275;-63
2024/03/05 00:22:34;;;;;;;2.60;1.20;;;;;;;17.25;52.93;101079.91;10450073;28;20029;-63
2024/03/05 00:27:34;;;;;;;1.73;1.20;;;;;;;17.23;53.62;101082.09;10450402;28;20314;-63
2024/03/05 00:32:37;;;;;;;2.90;1.07;;;;;;;17.23;53.32;101092.00;10449311;28;20287;-63
2024/03/05 00:37:37;;;;;;;1.75;1.00;;;;;;;17.23;52.87;101079.41;10448689;28;20275;-63
2024/03/05 00:42:38;;;;;;;4.32;1.25;;;;;;;17.24;52.49;101094.41;10450283;28;20032;-64
2024/03/05 00:47:38;;;;;;;1.70;1.00;;;;;;;17.27;54.01;101097.59;10448090;28;20108;-64
2024/03/05 00:52:39;;;;;;;2.70;1.07;;;;;;;17.27;52.95;101085.00;10450163;28;20372;-63
2024/03/05 00:57:39;;;;;;;2.17;1.17;;;;;;;17.23;53.22;101092.81;10449390;28;20274;-63
2024/03/05 01:02:42;;;;;;;1.90;0.90;;;;;;;17.17;53.79;101091.25;10449664;28;20078;-63
2024/03/05 01:07:42;;;;;;;2.25;0.88;;;;;;;17.22;52.88;101099.25;10447165;28;20087;-63
2024/03/05 01:12:43;;;;;;;1.77;0.80;;;;;;;17.23;52.72;101089.31;10448951;28;20095;-63
2024/03/05 01:17:44;;;;;;;1.63;1.10;;;;;;;17.23;52.34;101097.38;10448434;28;20382;-63
2024/03/05 01:22:46;;;;;;;1.53;0.80;;;;;;;17.27;52.74;101100.28;10448489;28;20380;-63
2024/03/05 01:27:46;;;;;;;2.45;1.20;;;;;;;17.27;53.16;101095.72;10447017;28;20662;-63
2024/03/05 01:32:48;;;;;;;2.90;1.23;;;;;;;17.28;52.51;101085.81;10447153;28;20025;-63
2024/03/05 01:37:48;;;;;;;2.38;1.15;;;;;;;17.29;52.45;101084.75;10446593;28;20275;-64
2024/03/05 01:42:49;;;;;;;1.67;1.05;;;;;;;17.26;51.95;101083.41;10446983;28;20499;-64
2024/03/05 01:47:50;;;;;;;2.45;1.20;;;;;;;17.24;52.04;101081.00;10447621;28;20415;-63
2024/03/05 01:52:50;;;;;;;3.30;1.30;;;;;;;17.23;51.70;101084.75;10447880;28;20106;-64
2024/03/05 01:57:51;;;;;;;1.87;0.83;;;;;;;17.25;51.59;101081.81;10447569;28;20016;-63
2024/03/05 02:02:51;;;;;;;1.75;0.95;;;;;;;17.28;52.20;101075.88;10447737;28;20275;-63
2024/03/05 02:07:53;;;;;;;1.50;0.98;;;;;;;17.29;52.09;101079.38;10447402;28;20021;-63
2024/03/05 02:12:53;;;;;;;2.10;1.02;;;;;;;17.27;51.67;101079.63;10446268;28;20519;-63
2024/03/05 02:17:54;;;;;;;1.17;0.80;;;;;;;17.23;52.91;101076.72;10446575;28;20017;-63
2024/03/05 02:22:54;;;;;;;2.23;0.87;;;;;;;17.23;52.79;101073.25;10447134;28;20287;-64
2024/03/05 02:27:54;;;;;;;2.33;1.10;;;;;;;17.27;51.72;101084.19;10445582;28;20287;-63
2024/03/05 02:32:55;;;;;;;2.13;0.90;;;;;;;17.30;51.83;101078.31;10449186;28;20289;-63
2024/03/05 02:37:55;;;;;;;2.45;0.90;;;;;;;17.29;52.75;101076.72;10453508;28;20303;-63
2024/03/05 02:42:55;;;;;;;1.88;0.93;;;;;;;17.30;52.47;101070.28;10453853;28;20521;-64
2024/03/05 02:47:57;;;;;;;2.00;1.38;;;;;;;17.30;52.13;101063.03;10454337;28;20381;-64
2024/03/05 02:52:58;;;;;;;1.77;0.90;;;;;;;17.28;51.85;101062.47;10454655;28;20025;-63
2024/03/05 02:57:58;;;;;;;1.80;0.77;;;;;;;17.26;51.50;101059.28;10452828;28;20017;-63
2024/03/05 03:02:59;;;;;;;1.23;0.70;;;;;;;17.29;51.47;101061.44;10454105;28;20021;-63
2024/03/05 03:07:59;;;;;;;1.83;0.80;;;;;;;17.28;51.73;101062.47;10452592;28;20295;-63
2024/03/05 03:13:00;;;;;;;1.43;0.73;;;;;;;17.30;51.85;101064.91;10453669;28;20076;-63
2024/03/05 03:18:00;;;;;;;2.38;0.93;;;;;;;17.31;51.89;101058.47;10453120;28;20278;-63
2024/03/05 03:23:00;;;;;;;1.83;0.93;;;;;;;17.27;51.22;101058.19;10452179;28;20029;-63
2024/03/05 03:28:01;;;;;;;2.13;1.00;;;;;;;17.28;51.49;101054.44;10452855;28;20027;-63
2024/03/05 03:33:04;;;;;;;1.77;0.70;;;;;;;17.28;51.32;101051.75;10453294;28;20861;-63
2024/03/05 03:38:04;;;;;;;2.25;1.25;;;;;;;17.27;51.90;101052.84;10452499;28;20314;-63
2024/03/05 03:43:05;;;;;;;2.33;1.40;;;;;;;17.28;52.49;101042.91;10452406;28;20112;-63
2024/03/05 03:48:06;;;;;;;1.38;0.98;;;;;;;17.28;51.47;101037.56;10450674;28;20276;-63
2024/03/05 03:53:06;;;;;;;2.38;1.08;;;;;;;17.26;51.65;101045.88;10452186;28;20024;-63
2024/03/05 03:58:07;;;;;;;1.77;0.98;;;;;;;17.26;52.28;101045.88;10451818;28;20656;-63
2024/03/05 04:03:07;;;;;;;2.45;1.00;;;;;;;17.25;52.35;101041.59;10452033;28;20526;-63
2024/03/05 04:08:07;;;;;;;2.17;1.03;;;;;;;17.21;51.49;101040.56;10450042;28;20029;-63
2024/03/05 04:13:07;;;;;;;1.33;0.90;;;;;;;17.24;51.06;101046.16;10451331;28;20301;-63
2024/03/05 04:18:08;;;;;;;1.60;0.95;;;;;;;17.25;52.06;101049.66;10451040;28;20278;-63
2024/03/05 04:23:10;;;;;;;1.77;0.90;;;;;;;17.24;51.91;101061.44;10449613;28;20571;-63
2024/03/05 04:28:12;;;;;;;2.15;1.05;;;;;;;17.27;50.97;101058.19;10450406;28;20314;-63
2024/03/05 04:33:15;;;;;;;2.00;1.10;;;;;;;17.21;50.80;101052.09;10450659;28;20724;-63
2024/03/05 04:38:15;;;;;;;1.48;0.90;;;;;;;17.27;50.73;101060.09;10450099;28;20033;-64
2024/03/05 04:43:16;;;;;;;2.00;1.10;;;;;;;17.27;52.02;101063.56;10450508;28;20041;-63
2024/03/05 04:48:17;;;;;;;2.03;1.00;;;;;;;17.31;51.37;101058.47;10449992;28;20029;-64
2024/03/05 04:53:18;;;;;;;1.73;1.13;;;;;;;17.26;51.92;101061.97;10450048;28;20025;-64
2024/03/05 04:58:18;;;;;;;1.77;0.90;;;;;;;17.29;51.80;101058.75;10448673;28;20284;-64
2024/03/05 05:03:18;;;;;;;2.00;1.13;;;;;;;17.25;50.46;101060.38;10447898;28;20111;-63
2024/03/05 05:08:20;;;;;;;1.48;1.08;;;;;;;17.25;51.47;101068.41;10449362;28;20282;-63
2024/03/05 05:13:21;;;;;;;2.28;1.02;;;;;;;17.29;51.20;101077.50;10448094;28;20471;-64
2024/03/05 05:18:21;;;;;;;2.08;1.35;;;;;;;17.24;51.77;101075.66;10431023;28;20457;-63
2024/03/05 05:23:21;;;;;;;2.13;1.03;;;;;;;17.27;51.02;101079.63;10445573;28;20025;-63
2024/03/05 05:28:22;;;;;;;2.30;1.10;;;;;;;17.27;51.14;101081.53;10443502;28;20263;-63
2024/03/05 05:33:22;;;;;;;1.45;0.93;;;;;;;17.30;51.13;101089.03;10443396;28;20270;-64
2024/03/05 05:38:23;;;;;;;2.23;1.30;;;;;;;17.27;51.50;101086.88;10445411;28;20029;-63
2024/03/05 05:43:23;;;;;;;1.87;0.90;;;;;;;17.27;50.67;101086.88;10438046;28;20763;-64
2024/03/05 05:48:23;;;;;;;2.22;1.20;;;;;;;17.29;51.59;101079.38;10447982;28;20275;-64
2024/03/05 05:53:24;;;;;;;4.83;2.07;;;;;;;17.27;50.91;101074.28;10447105;28;20468;-64
2024/03/05 05:58:25;;;;;;;4.45;1.45;;;;;;;17.28;51.01;101078.56;10444518;28;20287;-64
2024/03/05 06:03:26;;;;;;;3.60;1.50;;;;;;;17.31;51.81;101082.59;10445831;28;20029;-64
2024/03/05 06:08:27;;;;;;;1.50;0.90;;;;;;;17.36;52.34;101069.94;10445830;28;20404;-60
2024/03/05 06:13:27;;;;;;;3.28;1.42;;;;;;;17.49;52.18;101080.03;10451523;28;20295;-61
2024/03/05 06:18:29;;;;;;;11.27;2.30;;;;;;;17.49;52.49;101088.06;10444099;28;20029;-62
2024/03/05 06:23:29;;;;;;;8.70;2.00;;;;;;;17.54;53.59;101101.47;10450909;28;20494;-61
2024/03/05 06:28:29;;;;;;;8.93;1.77;;;;;;;17.51;53.62;101110.03;10454611;28;20064;-63
2024/03/05 06:33:30;;;;;;;5.97;2.20;;;;;;;17.48;53.86;101118.66;10453793;28;20025;-61
2024/03/05 06:38:31;;;;;;;12.13;2.33;;;;;;;17.49;53.94;101116.75;10453755;28;20275;-62
2024/03/05 06:43:33;;;;;;;13.27;2.67;;;;;;;17.53;55.19;101110.59;10453396;28;20029;-61
2024/03/05 06:48:33;;;;;;;14.27;2.92;;;;;;;17.45;55.39;101102.31;10450957;28;20102;-62
2024/03/05 06:58:53;;;;;;;19.40;4.07;;;;;;;17.22;54.64;101122.56;10452333;28;20037;-63
2024/03/05 07:03:53;;;;;;;21.80;3.85;;;;;;;17.15;56.67;101112.13;10451522;28;20431;-63
2024/03/05 07:08:56;;;;;;;20.40;3.17;;;;;;;17.12;55.74;101126.09;10451503;28;20096;-62
2024/03/05 07:13:57;;;;;;;16.67;3.65;;;;;;;17.08;55.32;101125.03;10447904;28;20762;-65
2024/03/05 07:18:59;;;;;;;13.32;2.85;;;;;;;17.02;55.44;101118.09;10434588;28;20612;-64
2024/03/05 07:24:00;;;;;;;9.43;3.22;;;;;;;16.98;55.57;101125.09;10446077;28;20037;-64
2024/03/05 07:29:01;;;;;;;11.55;3.65;;;;;;;16.92;55.47;101137.69;10451199;28;20047;-62
2024/03/05 07:34:02;;;;;;;10.77;2.78;;;;;;;16.84;55.94;101132.91;10452281;28;20036;-65
2024/03/05 07:39:05;;;;;;;11.55;3.53;;;;;;;16.86;55.44;101141.47;10451223;28;20090;-65
2024/03/05 07:44:06;;;;;;;9.32;2.92;;;;;;;16.86;54.75;101132.63;10451320;28;20043;-65
2024/03/05 07:49:06;;;;;;;15.73;3.13;;;;;;;16.83;55.06;101123.28;10452203;28;20044;-65
2024/03/05 07:54:06;;;;;;;11.65;4.25;;;;;;;16.82;54.67;101131.59;10440797;28;20861;-64
2024/03/05 07:59:07;;;;;;;6.72;2.88;;;;;;;16.80;54.07;101131.03;10445502;28;20064;-65
2024/03/05 08:04:07;;;;;;;6.03;2.37;;;;;;;16.82;53.81;101128.91;10449600;28;20134;-65
2024/03/05 08:09:07;;;;;;;18.73;2.90;;;;;;;16.86;54.41;101125.41;10451115;28;20287;-65
2024/03/05 08:14:08;;;;;;;9.67;3.40;;;;;;;16.91;54.35;101132.59;10450243;28;20288;-64
2024/03/05 08:19:08;;;;;;;6.93;3.13;;;;;;;16.95;54.74;101128.31;10449946;28;20853;-65
2024/03/05 08:24:09;;;;;;;7.90;2.60;;;;;;;16.94;54.17;101135.56;10448135;28;20287;-64
2024/03/05 08:29:10;;;;;;;7.07;2.92;;;;;;;16.98;53.44;101133.13;10450924;28;20834;-65
2024/03/05 08:34:10;;;;;;;5.20;2.63;;;;;;;16.99;55.12;101139.28;10447117;28;20487;-65
2024/03/05 08:39:18;;;;;;;5.73;2.60;;;;;;;16.98;55.53;101143.03;10435650;28;20028;-65
2024/03/05 08:44:19;;;;;;;5.72;2.03;;;;;;;16.94;55.21;101146.28;10446237;28;20327;-66
2024/03/05 08:49:20;;;;;;;5.30;1.83;;;;;;;16.94;54.34;101140.91;10440915;28;20100;-66
2024/03/05 08:54:20;;;;;;;5.85;2.35;;;;;;;16.93;54.56;101146.53;10442999;28;20017;-65
2024/03/05 08:59:21;;;;;;;5.97;3.33;;;;;;;16.92;54.88;101151.06;10448186;28;20066;-66
2024/03/05 09:04:23;;;;;;;5.67;2.93;;;;;;;16.93;54.81;101159.94;10447000;28;20033;-66
2024/03/05 09:09:30;;;;;;;6.85;2.83;;;;;;;16.94;54.45;101164.22;10447046;28;20353;-65
2024/03/05 09:14:30;;;;;;;6.88;3.00;;;;;;;16.95;54.04;101173.84;10446248;28;20048;-65
2024/03/05 09:19:31;;;;;;;5.07;2.70;;;;;;;17.00;53.41;101173.81;10448504;28;20019;-65
2024/03/05 09:24:32;;;;;;;6.63;3.42;;;;;;;16.99;54.02;101166.06;10448023;28;20295;-65
2024/03/05 09:29:32;;;;;;;7.70;3.28;;;;;;;16.97;53.94;101165.53;10446406;28;20025;-65
2024/03/05 09:34:33;;;;;;;4.65;3.13;;;;;;;16.95;54.51;101161.25;10446257;28;20663;-65
2024/03/05 09:39:35;;;;;;;5.57;3.77;;;;;;;16.99;53.75;101158.84;10428959;28;20075;-65
2024/03/05 09:44:37;;;;;;;8.85;3.85;;;;;;;17.00;53.50;101159.63;10416050;28;20762;-66
2024/03/05 09:49:37;;;;;;;7.72;3.75;;;;;;;17.00;53.59;101162.31;10445444;28;20037;-65
2024/03/05 09:54:38;;;;;;;6.40;3.33;;;;;;;16.98;54.72;101165.25;10443730;28;20017;-65
2024/03/05 09:59:39;;;;;;;5.93;3.45;;;;;;;17.01;54.54;101172.75;10444730;28;20040;-65
2024/03/05 10:04:41;;;;;;;6.68;3.72;;;;;;;16.97;54.57;101171.69;10443004;28;20021;-65
2024/03/05 10:09:41;;;;;;;5.82;3.70;;;;;;;17.02;53.97;101185.06;10444242;28;20399;-64
2024/03/05 10:14:42;;;;;;;8.23;4.20;;;;;;;17.04;54.43;101185.59;10443744;28;20045;-64
2024/03/05 10:19:43;;;;;;;6.43;4.20;;;;;;;17.03;54.95;101188.53;10445745;28;20032;-64
2024/03/05 10:24:44;;;;;;;7.05;3.33;;;;;;;17.01;53.79;101188.81;10444705;28;20287;-65
2024/03/05 10:29:44;;;;;;;5.68;3.65;;;;;;;17.01;54.44;101191.50;10445473;28;20082;-65
2024/03/05 10:34:45;;;;;;;7.03;3.73;;;;;;;17.04;54.17;101207.03;10441728;28;20461;-64
2024/03/05 10:39:46;;;;;;;6.45;4.15;;;;;;;16.99;54.32;101188.28;10442671;28;20332;-65
2024/03/05 10:44:47;;;;;;;7.97;4.18;;;;;;;17.02;54.54;101203.03;10442436;28;20078;-65
2024/03/05 10:49:47;;;;;;;6.88;4.25;;;;;;;17.01;54.44;101198.75;10442231;28;20033;-65
2024/03/05 10:54:48;;;;;;;5.95;4.43;;;;;;;17.02;54.58;101200.34;10445720;28;20029;-65
2024/03/05 10:59:53;;;;;;;9.07;4.45;;;;;;;17.01;54.61;101206.78;10452465;28;20054;-65
2024/03/05 11:04:54;;;;;;;7.55;4.88;;;;;;;17.03;53.33;101208.09;10453218;28;20028;-65
2024/03/05 11:09:58;;;;;;;10.57;4.53;;;;;;;17.04;54.10;101208.91;10451953;28;20029;-65
2024/03/05 11:14:58;;;;;;;6.50;4.35;;;;;;;16.97;54.42;101214.56;10440723;28;20390;-64
2024/03/05 11:19:59;;;;;;;8.77;5.00;;;;;;;17.04;54.73;101211.59;10447644;28;20041;-65
2024/03/05 11:25:01;;;;;;;6.75;4.30;;;;;;;17.07;53.80;101217.22;10450332;28;20025;-64
2024/03/05 11:30:11;;;;;;;9.85;4.65;;;;;;;17.09;53.46;101214.25;10443465;28;20017;-64
2024/03/05 11:35:13;;;;;;;7.70;4.10;;;;;;;17.05;53.81;101219.38;10446723;28;20516;-65
2024/03/05 11:40:16;;;;;;;6.28;4.05;;;;;;;17.07;53.46;101219.91;10430259;28;20503;-65
2024/03/05 11:45:44;;;;;;;7.00;4.07;;;;;;;17.08;53.22;101223.38;10448939;28;20632;-65
2024/03/05 11:50:54;;;;;;;8.80;4.55;;;;;;;17.05;54.26;101224.72;10442969;28;20032;-65
2024/03/05 11:56:04;;;;;;;8.73;5.20;;;;;;;17.05;53.91;101221.22;10448516;28;20579;-65
2024/03/05 12:01:04;;;;;;;5.70;3.97;;;;;;;17.08;53.34;101226.06;10440199;28;20025;-65
2024/03/05 12:06:05;;;;;;;6.85;4.55;;;;;;;17.25;57.34;101226.53;10450277;28;20426;-65
2024/03/05 12:11:05;;;;;;;6.80;4.43;;;;;;;17.30;56.05;101223.84;10451185;28;20044;-64
2024/03/05 12:16:14;;;;;;;7.20;4.80;;;;;;;17.31;55.13;101233.47;10450600;28;20040;-64
2024/03/05 12:21:14;;;;;;;8.23;4.40;;;;;;;17.30;56.17;101231.88;10443008;28;20070;-63
2024/03/05 12:26:15;;;;;;;8.25;5.28;;;;;;;17.28;56.06;101227.84;10445114;28;20013;-59
2024/03/05 12:31:15;;;;;;;8.60;4.28;;;;;;;17.29;57.71;101232.16;10449271;28;20029;-65
2024/03/05 12:36:16;;;;;;;9.88;4.30;;;;;;;17.31;57.71;101238.03;10448324;28;20102;-64
2024/03/05 12:41:20;;;;;;;11.32;5.68;;;;;;;17.25;57.20;101234.56;10448217;28;20040;-64
2024/03/05 12:46:21;;;;;;;7.82;5.15;;;;;;;17.25;56.74;101231.88;10449653;28;20025;-65
2024/03/05 12:51:23;;;;;;;8.68;4.60;;;;;;;17.23;57.19;101236.72;10450200;28;20033;-64
2024/03/05 12:56:23;;;;;;;7.90;5.07;;;;;;;17.19;56.59;101233.00;10448252;28;20512;-65
2024/03/05 13:01:23;;;;;;;8.97;6.20;;;;;;;17.17;56.40;101243.19;10449498;28;20024;-65
2024/03/05 13:06:24;;;;;;;6.72;4.90;;;;;;;17.13;57.48;101250.13;10448253;28;20798;-64
2024/03/05 13:11:24;;;;;;;9.40;5.20;;;;;;;17.04;56.94;101249.09;10447335;28;20040;-67
2024/03/05 13:16:24;;;;;;;16.33;5.97;;;;;;;17.10;56.45;101245.34;10446982;28;20919;-64
2024/03/05 13:21:25;;;;;;;11.07;4.97;;;;;;;17.21;56.68;101255.75;10441633;28;20278;-64
2024/03/05 13:26:25;;;;;;;12.50;5.53;;;;;;;17.38;56.68;101257.28;10447925;28;20781;-62
2024/03/05 13:31:25;;;;;;;12.10;5.30;;;;;;;17.40;57.79;101255.13;10447246;28;20370;-63
2024/03/05 13:36:26;;;;;;;11.73;5.57;;;;;;;17.59;57.71;101261.50;10447689;28;20366;-64
2024/03/05 13:41:28;;;;;;;14.63;5.60;;;;;;;17.51;57.37;101256.69;10446914;28;20411;-61
2024/03/05 13:46:28;;;;;;;15.05;5.43;;;;;;;17.42;59.32;101259.16;10447392;28;20032;-62
2024/03/05 13:51:29;;;;;;;18.13;6.30;;;;;;;17.46;59.81;101262.09;10448019;28;20086;-64
2024/03/05 13:56:32;;;;;;;15.80;6.70;;;;;;;17.46;59.06;101267.47;10426740;28;20267;-61
2024/03/05 14:01:33;;;;;;;17.80;6.63;;;;;;;17.45;58.75;101266.66;10442835;28;20033;-63
2024/03/05 14:06:33;;;;;;;22.02;7.50;;;;;;;17.46;58.22;101272.81;10447211;28;20025;-58
2024/03/05 14:11:35;;;;;;;25.23;7.40;;;;;;;17.45;58.47;101277.38;10447422;28;20124;-62
2024/03/05 14:16:38;;;;;;;13.77;6.32;;;;;;;17.44;58.62;101273.09;10445784;28;20032;-60
2024/03/05 14:21:38;;;;;;;15.98;6.70;;;;;;;17.48;59.63;101274.16;10447500;28;20048;-59
2024/03/05 14:26:41;;;;;;;20.05;7.47;;;;;;;17.50;59.32;101274.66;10446787;28;20120;-61
2024/03/05 14:31:41;;;;;;;30.58;8.20;;;;;;;17.53;60.29;101282.19;10453608;28;20659;-59
2024/03/05 14:36:42;;;;;;;17.70;6.90;;;;;;;17.48;59.95;101271.47;10455073;28;20013;-60
2024/03/05 14:41:43;;;;;;;18.65;6.15;;;;;;;17.41;58.81;101275.53;10455223;28;20064;-60
2024/03/05 14:46:43;;;;;;;14.75;6.30;;;;;;;17.45;58.50;101271.22;10453180;28;20029;-64
2024/03/05 14:51:43;;;;;;;18.33;6.80;;;;;;;17.42;60.29;101282.50;10453316;28;20025;-60
2024/03/05 14:56:44;;;;;;;14.43;7.20;;;;;;;17.39;59.09;101286.50;10453866;28;20075;-62
2024/03/05 15:01:45;;;;;;;24.55;8.05;;;;;;;17.37;59.31;101283.28;10453344;28;20291;-62
2024/03/05 15:06:46;;;;;;;18.23;9.00;;;;;;;17.35;59.24;101292.69;10450985;28;20599;-61
2024/03/05 15:11:47;;;;;;;20.67;7.53;;;;;;;17.25;58.52;101294.31;10452813;28;20048;-61
2024/03/05 15:16:47;;;;;;;19.23;7.78;;;;;;;17.17;58.70;101294.09;10444760;28;20021;-62
2024/03/05 15:21:47;;;;;;;24.67;7.93;;;;;;;17.06;59.88;101301.34;10443678;28;20051;-61
2024/03/05 15:26:48;;;;;;;26.60;6.78;;;;;;;17.02;60.70;101299.47;10450339;28;20462;-61
2024/03/05 15:31:48;;;;;;;16.77;6.60;;;;;;;16.95;60.50;101297.09;10452282;28;20027;-63
2024/03/05 15:36:48;;;;;;;25.63;12.67;;;;;;;17.03;62.55;101301.88;10452073;28;20798;-61
2024/03/05 15:41:49;;;;;;;37.75;14.68;;;;;;;17.14;62.72;101303.47;10449691;28;20263;-61
2024/03/05 15:46:49;;;;;;;23.17;10.32;;;;;;;17.28;60.38;101309.06;10450352;28;20051;-60
2024/03/05 15:51:50;;;;;;;22.55;9.20;;;;;;;17.28;59.98;101316.28;10450439;28;20031;-61
2024/03/05 15:57:00;;;;;;;18.77;9.00;;;;;;;17.29;57.81;101315.25;10449380;28;20013;-61
2024/03/05 16:02:01;;;;;;;18.60;8.52;;;;;;;17.28;58.36;101317.09;10451714;28;20837;-61
2024/03/05 16:07:03;;;;;;;19.63;8.63;;;;;;;17.27;57.33;101317.38;10450679;28;20048;-61
2024/03/05 16:12:04;;;;;;;14.90;9.32;;;;;;;17.20;58.09;101321.16;10449432;28;20345;-60
2024/03/05 16:17:05;;;;;;;16.10;8.15;;;;;;;17.18;57.26;101317.94;10449716;28;20357;-60
2024/03/05 16:22:05;;;;;;;14.00;7.30;;;;;;;17.18;58.42;101320.63;10450127;28;20025;-60
2024/03/05 16:27:05;;;;;;;14.27;7.50;;;;;;;17.13;57.07;101330.53;10449541;28;20871;-60
2024/03/05 16:32:06;;;;;;;17.27;7.90;;;;;;;17.10;57.82;101331.06;10449069;28;20511;-60
2024/03/05 16:37:06;;;;;;;13.18;7.78;;;;;;;17.07;57.93;101335.09;10449369;28;20283;-60
2024/03/05 16:42:10;;;;;;;16.98;8.32;;;;;;;17.07;57.77;101336.97;10448602;28;20542;-60
2024/03/05 16:47:11;;;;;;;14.73;7.68;;;;;;;17.06;56.95;101341.53;10448493;28;20021;-60
2024/03/05 16:52:12;;;;;;;12.63;6.97;;;;;;;17.08;57.14;101344.75;10447851;28;20112;-60
2024/03/05 16:57:12;;;;;;;10.27;6.23;;;;;;;17.03;57.61;101350.09;10447587;28;20025;-58
2024/03/05 17:02:14;;;;;;;23.93;8.43;;;;;;;17.11;56.79;101352.25;10465988;28;20371;-59
2024/03/05 17:07:15;;;;;;;13.45;7.75;;;;;;;17.11;57.49;101354.13;10467103;28;20299;-61
2024/03/05 17:12:18;;;;;;;12.02;7.35;;;;;;;17.09;58.13;101357.06;10443992;28;20107;-63
2024/03/05 17:17:18;;;;;;;13.32;7.15;;;;;;;17.28;60.73;101364.53;10435536;28;20021;-59
2024/03/05 17:22:18;;;;;;;17.37;8.13;;;;;;;17.50;60.42;101363.16;10447056;28;20021;-62
2024/03/05 17:27:20;;;;;;;18.23;6.63;;;;;;;17.58;60.77;101371.72;10446218;28;20291;-59
2024/03/05 17:32:25;;;;;;;18.27;6.78;;;;;;;17.57;59.12;101370.91;10446416;28;20293;-58
2024/03/05 17:37:26;;;;;;;12.38;7.57;;;;;;;17.56;59.23;101381.91;10445689;28;20020;-60
2024/03/05 17:42:27;;;;;;;15.43;7.67;;;;;;;17.57;59.21;101392.38;10447307;28;20028;-58
2024/03/05 17:47:27;;;;;;;13.55;5.85;;;;;;;17.57;60.53;101388.88;10446850;28;20319;-59
2024/03/05 17:52:27;;;;;;;9.53;6.10;;;;;;;17.51;59.74;101388.06;10445762;28;20530;-59
2024/03/05 17:57:28;;;;;;;13.68;6.68;;;;;;;17.44;59.31;101398.31;10444692;28;20329;-59
2024/03/05 18:02:28;;;;;;;12.75;6.55;;;;;;;17.38;58.58;101410.09;10429292;28;20036;-58
2024/03/05 18:07:29;;;;;;;16.00;7.07;;;;;;;17.35;59.20;101407.97;10442897;28;20021;-60
2024/03/05 18:12:29;;;;;;;12.50;6.60;;;;;;;17.34;59.11;101417.88;10441425;28;20291;-59
2024/03/05 18:17:30;;;;;;;17.20;6.30;;;;;;;17.16;59.49;101421.88;10432294;28;20292;-60
2024/03/05 18:22:30;;;;;;;17.75;6.78;;;;;;;17.06;60.67;101419.25;10434499;28;20074;-59
2024/03/05 18:27:32;;;;;;;15.40;6.00;;;;;;;16.99;61.01;101426.72;10432719;28;20329;-59
2024/03/05 18:32:32;;;;;;;12.85;5.57;;;;;;;16.98;60.78;101427.78;10433120;28;20036;-58
2024/03/05 18:37:33;;;;;;;13.80;5.38;;;;;;;16.93;60.16;101425.94;10442118;28;20496;-59
2024/03/05 18:42:33;;;;;;;10.27;5.67;;;;;;;16.90;61.14;101428.31;10441520;28;20361;-59
2024/03/05 18:47:33;;;;;;;15.00;6.28;;;;;;;16.85;61.45;101429.13;10441234;28;20298;-59
2024/03/05 18:52:35;;;;;;;10.90;5.20;;;;;;;16.86;60.69;101435.28;10428424;28;20064;-60
2024/03/05 18:57:36;;;;;;;11.50;5.20;;;;;;;16.86;61.12;101440.66;10413733;28;20287;-60
2024/03/05 19:02:36;;;;;;;15.90;7.53;;;;;;;16.88;59.10;101441.97;10435030;28;20029;-60
2024/03/05 19:07:37;;;;;;;12.52;6.05;;;;;;;16.89;58.75;101440.91;10429969;28;20625;-60
2024/03/05 19:12:39;;;;;;;8.13;5.38;;;;;;;16.94;57.79;101440.13;10432455;28;20458;-60
2024/03/05 19:17:42;;;;;;;10.52;5.45;;;;;;;16.88;59.91;101439.31;10446984;28;20366;-60
2024/03/05 19:22:43;;;;;;;8.73;4.55;;;;;;;16.86;59.37;101435.28;10447915;28;20500;-59
2024/03/05 19:27:43;;;;;;;8.70;4.85;;;;;;;16.87;59.37;101440.38;10444673;28;20111;-59
2024/03/05 19:32:44;;;;;;;11.15;5.25;;;;;;;16.87;59.32;101445.72;10442502;28;20388;-60
2024/03/05 19:37:46;;;;;;;8.85;4.90;;;;;;;16.93;58.31;101449.25;10435231;28;20017;-58
2024/03/05 19:42:55;;;;;;;16.85;5.65;;;;;;;16.95;59.98;101449.78;10428214;28;20021;-60
2024/03/05 19:47:57;;;;;;;10.00;5.65;;;;;;;17.07;59.07;101453.00;10446795;28;20021;-60
2024/03/05 19:52:57;;;;;;;10.10;5.25;;;;;;;17.08;57.72;101448.44;10446840;28;20029;-61
2024/03/05 19:57:57;;;;;;;10.55;5.18;;;;;;;17.08;57.23;101459.16;10447095;28;20017;-59
2024/03/05 20:02:59;;;;;;;13.47;5.10;;;;;;;17.03;57.31;101461.81;10446323;28;20055;-61
2024/03/05 20:07:59;;;;;;;9.77;4.75;;;;;;;17.04;57.49;101460.75;10447311;28;20298;-60
2024/03/05 20:12:59;;;;;;;8.17;4.43;;;;;;;17.04;57.43;101471.47;10446936;28;20578;-60
2024/03/05 20:18:00;;;;;;;7.78;4.85;;;;;;;17.05;56.70;101467.72;10447729;28;20321;-60
2024/03/05 20:23:01;;;;;;;7.37;5.03;;;;;;;17.08;56.88;101476.03;10445747;28;20032;-60
2024/03/05 20:28:03;;;;;;;7.00;4.75;;;;;;;17.12;57.00;101477.09;10444766;28;20778;-60
2024/03/05 20:33:04;;;;;;;6.45;4.30;;;;;;;17.14;56.11;101480.31;10439664;28;20028;-60
2024/03/05 20:38:06;;;;;;;10.45;5.05;;;;;;;17.17;56.52;101481.69;10445117;28;20036;-60
2024/03/05 20:43:08;;;;;;;8.38;4.75;;;;;;;17.21;56.17;101486.22;10444331;28;20531;-60
2024/03/05 20:48:08;;;;;;;6.88;5.00;;;;;;;17.28;56.34;101479.78;10428396;28;20032;-60
2024/03/05 20:53:09;;;;;;;7.20;4.75;;;;;;;17.29;56.29;101495.63;10445381;28;20040;-60
2024/03/05 20:58:09;;;;;;;5.95;4.55;;;;;;;17.29;55.38;101492.13;10437175;28;20078;-59
2024/03/05 21:03:10;;;;;;;7.00;4.63;;;;;;;17.30;55.91;101502.59;10445843;28;20028;-60
2024/03/05 21:08:11;;;;;;;6.07;3.97;;;;;;;17.29;55.85;101497.50;10445392;28;20789;-59
2024/03/05 21:13:11;;;;;;;5.50;4.10;;;;;;;17.35;54.95;101499.09;10443282;28;20044;-59
2024/03/05 21:18:12;;;;;;;7.38;4.38;;;;;;;17.31;54.96;101501.50;10445096;28;20063;-59
2024/03/05 21:23:12;;;;;;;4.87;4.00;;;;;;;17.31;55.23;101508.75;10444322;28;20028;-60
2024/03/05 21:28:13;;;;;;;6.03;4.13;;;;;;;17.33;55.81;101506.59;10444453;28;20286;-60
2024/03/05 21:33:13;;;;;;;4.88;3.58;;;;;;;17.31;56.04;101504.19;10444108;28;20063;-59
2024/03/05 21:38:13;;;;;;;6.00;4.00;;;;;;;17.30;55.38;101497.22;10443880;28;20013;-60
2024/03/05 21:43:15;;;;;;;6.15;3.50;;;;;;;17.32;55.58;101513.84;10443685;28;20275;-61
2024/03/05 21:48:16;;;;;;;5.55;3.33;;;;;;;17.33;55.38;101509.28;10443942;28;20032;-60
2024/03/05 21:53:16;;;;;;;8.80;3.67;;;;;;;17.34;54.46;101511.69;10443366;28;20040;-60
2024/03/05 21:58:16;;;;;;;5.57;4.13;;;;;;;17.33;55.01;101515.44;10443663;28;20403;-60
2024/03/05 22:03:17;;;;;;;29.13;3.80;;;;;;;17.32;54.68;101510.34;10441909;28;20302;-59
2024/03/05 22:08:18;;;;;;;5.15;3.47;;;;;;;17.31;55.97;101522.97;10443398;28;20284;-60
2024/03/05 22:13:18;;;;;;;6.28;3.55;;;;;;;17.32;56.12;101526.44;10443473;28;20098;-59
2024/03/05 22:18:19;;;;;;;4.97;3.55;;;;;;;17.31;54.58;101536.38;10443463;28;20205;-59
2024/03/05 22:23:20;;;;;;;4.72;3.60;;;;;;;17.29;55.78;101533.16;10441330;28;20037;-59
2024/03/05 22:28:20;;;;;;;4.63;3.20;;;;;;;17.31;55.36;101548.97;10443243;28;20115;-60
2024/03/05 22:33:22;;;;;;;4.25;2.83;;;;;;;17.29;55.30;101546.56;10442296;28;20048;-59
2024/03/05 22:38:22;;;;;;;4.70;3.17;;;;;;;17.29;55.31;101545.75;10443317;28;20393;-60
2024/03/05 22:43:23;;;;;;;3.75;3.13;;;;;;;17.29;55.19;101551.91;10442535;28;20029;-60
2024/03/05 22:48:23;;;;;;;4.32;3.47;;;;;;;17.29;54.06;101549.22;10442922;28;20078;-60
2024/03/05 22:53:24;;;;;;;4.23;3.10;;;;;;;17.31;53.89;101554.31;10449949;28;20035;-60
2024/03/05 22:58:24;;;;;;;4.55;3.42;;;;;;;17.33;55.19;101558.34;10450464;28;20647;-60
2024/03/05 23:03:26;;;;;;;3.90;2.83;;;;;;;17.33;54.19;101560.22;10448958;28;20028;-60